URO8973 ENGM-ESSA
Flight info
| Callsign | URO8973 |
|---|---|
| Flight time | 1h 4m |
| Altitude | 31000 |
| Route | MASEV Z183 LEGPO DCT ELTOK |
| Aircraft | A346/H-SDE2E3FGHIJ3J4J5M1RWXY/LB1D1 |
Departure
| Time | 2026-05-05 15:25 |
|---|---|
| Airport | Oslo-Gardermoen International Airport (ENGM) |
Arrival
| Time | 2026-05-05 16:29 |
|---|---|
| Airport | Stockholm-Arlanda Airport (ESSA) |
| Time | Latitude | Longitude | Altitude | Speed | Heading |
|---|---|---|---|---|---|
| 2026-05-05 14:54 | 60.19590 | 11.09360 | 695 ft | 0 kts | 196° |
| 2026-05-05 14:56 | 60.19733 | 11.09960 | 694 ft | 0 kts | 110° |
| 2026-05-05 14:56 | 60.19729 | 11.09949 | 694 ft | 0 kts | 110° |
| 2026-05-05 14:56 | 60.19729 | 11.09950 | 695 ft | 0 kts | 109° |
| 2026-05-05 14:57 | 60.19724 | 11.09979 | 695 ft | 2 kts | 103° |
| 2026-05-05 14:57 | 60.19724 | 11.09980 | 695 ft | 0 kts | 103° |
| 2026-05-05 15:10 | 60.19724 | 11.09979 | 695 ft | 1 kts | 103° |
| 2026-05-05 15:10 | 60.19733 | 11.09901 | 695 ft | 0 kts | 100° |
| 2026-05-05 15:10 | 60.19736 | 11.09874 | 695 ft | 4 kts | 109° |
| 2026-05-05 15:11 | 60.19743 | 11.09838 | 695 ft | 2 kts | 129° |
| 2026-05-05 15:11 | 60.19762 | 11.09815 | 695 ft | 2 kts | 167° |
| 2026-05-05 15:11 | 60.19780 | 11.09813 | 695 ft | 0 kts | 190° |
| 2026-05-05 15:11 | 60.19792 | 11.09818 | 695 ft | 0 kts | 193° |
| 2026-05-05 15:13 | 60.19775 | 11.09810 | 695 ft | 8 kts | 194° |
| 2026-05-05 15:14 | 60.19740 | 11.09788 | 695 ft | 1 kts | 201° |
| 2026-05-05 15:14 | 60.19736 | 11.09783 | 695 ft | 1 kts | 211° |
| 2026-05-05 15:14 | 60.19728 | 11.09764 | 695 ft | 0 kts | 239° |
| 2026-05-05 15:14 | 60.19726 | 11.09753 | 695 ft | 1 kts | 248° |
| 2026-05-05 15:15 | 60.19721 | 11.09718 | 695 ft | 3 kts | 259° |
| 2026-05-05 15:15 | 60.19720 | 11.09693 | 695 ft | 0 kts | 272° |
| 2026-05-05 15:15 | 60.19727 | 11.09637 | 695 ft | 6 kts | 295° |
| 2026-05-05 15:15 | 60.19745 | 11.09519 | 695 ft | 15 kts | 284° |
| 2026-05-05 15:16 | 60.19774 | 11.09289 | 695 ft | 8 kts | 286° |
| 2026-05-05 15:16 | 60.19789 | 11.09187 | 695 ft | 10 kts | 287° |
| 2026-05-05 15:16 | 60.19825 | 11.08990 | 695 ft | 10 kts | 284° |
| 2026-05-05 15:16 | 60.19837 | 11.08868 | 695 ft | 7 kts | 280° |
| 2026-05-05 15:17 | 60.19832 | 11.08709 | 695 ft | 12 kts | 216° |
| 2026-05-05 15:17 | 60.19756 | 11.08660 | 695 ft | 11 kts | 193° |
| 2026-05-05 15:17 | 60.19680 | 11.08619 | 695 ft | 15 kts | 195° |
| 2026-05-05 15:17 | 60.19581 | 11.08566 | 695 ft | 11 kts | 195° |
| 2026-05-05 15:18 | 60.19500 | 11.08517 | 695 ft | 12 kts | 197° |
| 2026-05-05 15:18 | 60.19431 | 11.08474 | 695 ft | 5 kts | 196° |
| 2026-05-05 15:18 | 60.19389 | 11.08449 | 695 ft | 6 kts | 196° |
| 2026-05-05 15:18 | 60.19336 | 11.08418 | 695 ft | 8 kts | 196° |
| 2026-05-05 15:19 | 60.19271 | 11.08382 | 695 ft | 10 kts | 195° |
| 2026-05-05 15:19 | 60.19193 | 11.08336 | 695 ft | 12 kts | 197° |
| 2026-05-05 15:19 | 60.19102 | 11.08282 | 695 ft | 14 kts | 195° |
| 2026-05-05 15:19 | 60.19009 | 11.08214 | 695 ft | 9 kts | 195° |
| 2026-05-05 15:20 | 60.18935 | 11.08197 | 695 ft | 11 kts | 181° |
| 2026-05-05 15:20 | 60.18864 | 11.08161 | 695 ft | 10 kts | 204° |
| 2026-05-05 15:20 | 60.18807 | 11.08115 | 695 ft | 5 kts | 199° |
| 2026-05-05 15:20 | 60.18761 | 11.08087 | 695 ft | 7 kts | 198° |
| 2026-05-05 15:21 | 60.18713 | 11.08058 | 695 ft | 8 kts | 195° |
| 2026-05-05 15:21 | 60.18651 | 11.08018 | 695 ft | 10 kts | 198° |
| 2026-05-05 15:21 | 60.18492 | 11.07925 | 695 ft | 32 kts | 196° |
| 2026-05-05 15:21 | 60.18363 | 11.07853 | 695 ft | 1 kts | 221° |
| 2026-05-05 15:22 | 60.18356 | 11.07833 | 695 ft | 2 kts | 239° |
| 2026-05-05 15:22 | 60.18350 | 11.07785 | 695 ft | 6 kts | 266° |
| 2026-05-05 15:22 | 60.18364 | 11.07709 | 695 ft | 6 kts | 303° |
| 2026-05-05 15:22 | 60.18395 | 11.07641 | 695 ft | 4 kts | 321° |
| 2026-05-05 15:23 | 60.18425 | 11.07597 | 695 ft | 6 kts | 325° |
| 2026-05-05 15:23 | 60.18462 | 11.07540 | 695 ft | 6 kts | 321° |
| 2026-05-05 15:23 | 60.18493 | 11.07472 | 695 ft | 5 kts | 291° |
| 2026-05-05 15:23 | 60.18509 | 11.07390 | 695 ft | 4 kts | 297° |
| 2026-05-05 15:24 | 60.18520 | 11.07384 | 695 ft | 0 kts | 17° |
| 2026-05-05 15:24 | 60.18514 | 11.07380 | 695 ft | 0 kts | 12° |
| 2026-05-05 15:25 | 60.18514 | 11.07381 | 695 ft | 0 kts | 12° |
| 2026-05-05 15:25 | 60.18913 | 11.07620 | 698 ft | 115 kts | 19° |
| 2026-05-05 15:25 | 60.19653 | 11.08121 | 1662 ft | 105 kts | 10° |
| 2026-05-05 15:25 | 60.20323 | 11.08341 | 2478 ft | 110 kts | 2° |
| 2026-05-05 15:26 | 60.21091 | 11.08568 | 3316 ft | 119 kts | 4° |
| 2026-05-05 15:26 | 60.21856 | 11.08849 | 4296 ft | 115 kts | 8° |
| 2026-05-05 15:26 | 60.22591 | 11.08927 | 5193 ft | 115 kts | 355° |
| 2026-05-05 15:26 | 60.23385 | 11.09058 | 6033 ft | 124 kts | 14° |
| 2026-05-05 15:27 | 60.24154 | 11.09635 | 7008 ft | 120 kts | 20° |
| 2026-05-05 15:27 | 60.24908 | 11.10314 | 7757 ft | 132 kts | 22° |
| 2026-05-05 15:27 | 60.25771 | 11.10986 | 8510 ft | 139 kts | 338° |
| 2026-05-05 15:27 | 60.25749 | 11.09135 | 7474 ft | 241 kts | 230° |
| 2026-05-05 15:28 | 60.24451 | 11.06239 | 7222 ft | 310 kts | 229° |
| 2026-05-05 15:28 | 60.22812 | 11.02793 | 6848 ft | 373 kts | 226° |
| 2026-05-05 15:28 | 60.21031 | 10.99344 | 7688 ft | 335 kts | 225° |
| 2026-05-05 15:28 | 60.19450 | 10.96414 | 8556 ft | 287 kts | 224° |
| 2026-05-05 15:29 | 60.18013 | 10.93865 | 9328 ft | 278 kts | 219° |
| 2026-05-05 15:29 | 60.16095 | 10.93224 | 10098 ft | 298 kts | 169° |
| 2026-05-05 15:29 | 60.14540 | 10.96079 | 10708 ft | 331 kts | 119° |
| 2026-05-05 15:29 | 60.13419 | 11.00383 | 9139 ft | 384 kts | 117° |
| 2026-05-05 15:30 | 60.12674 | 11.05372 | 7511 ft | 368 kts | 89° |
| 2026-05-05 15:30 | 60.13462 | 11.09649 | 7791 ft | 292 kts | 40° |
| 2026-05-05 15:30 | 60.15113 | 11.11588 | 8880 ft | 281 kts | 20° |
| 2026-05-05 15:30 | 60.16931 | 11.12958 | 8996 ft | 279 kts | 13° |
| 2026-05-05 15:31 | 60.18810 | 11.13846 | 8984 ft | 279 kts | 6° |
| 2026-05-05 15:31 | 60.20774 | 11.14232 | 8954 ft | 277 kts | 354° |
| 2026-05-05 15:31 | 60.22563 | 11.13124 | 9131 ft | 272 kts | 330° |
| 2026-05-05 15:31 | 60.24339 | 11.11713 | 9429 ft | 277 kts | 343° |
| 2026-05-05 15:32 | 60.26261 | 11.11257 | 9750 ft | 281 kts | 358° |
| 2026-05-05 15:32 | 60.28240 | 11.11725 | 10089 ft | 296 kts | 10° |
| 2026-05-05 15:32 | 60.30304 | 11.13102 | 10513 ft | 333 kts | 21° |
| 2026-05-05 15:32 | 60.32249 | 11.15875 | 11283 ft | 362 kts | 45° |
| 2026-05-05 15:33 | 60.33664 | 11.20243 | 12153 ft | 386 kts | 64° |
| 2026-05-05 15:33 | 60.34707 | 11.25410 | 13030 ft | 405 kts | 66° |
| 2026-05-05 15:33 | 60.35783 | 11.30728 | 14008 ft | 418 kts | 65° |
| 2026-05-05 15:33 | 60.36891 | 11.36207 | 15341 ft | 421 kts | 65° |
| 2026-05-05 15:34 | 60.37956 | 11.41620 | 16826 ft | 418 kts | 69° |
| 2026-05-05 15:34 | 60.38464 | 11.47411 | 18115 ft | 422 kts | 90° |
| 2026-05-05 15:34 | 60.37929 | 11.53229 | 19100 ft | 429 kts | 110° |
| 2026-05-05 15:34 | 60.36731 | 11.58774 | 20030 ft | 437 kts | 117° |
| 2026-05-05 15:35 | 60.35405 | 11.64356 | 20927 ft | 446 kts | 117° |
| 2026-05-05 15:35 | 60.34113 | 11.70094 | 21799 ft | 455 kts | 116° |
| 2026-05-05 15:35 | 60.32886 | 11.75948 | 22645 ft | 463 kts | 115° |
| 2026-05-05 15:35 | 60.31663 | 11.82083 | 23482 ft | 471 kts | 114° |
| 2026-05-05 15:36 | 60.30469 | 11.88255 | 24284 ft | 478 kts | 114° |
| 2026-05-05 15:36 | 60.29272 | 11.94517 | 25059 ft | 486 kts | 114° |
| 2026-05-05 15:36 | 60.28050 | 12.00926 | 25818 ft | 493 kts | 114° |
| 2026-05-05 15:36 | 60.26815 | 12.07393 | 26547 ft | 500 kts | 114° |
| 2026-05-05 15:37 | 60.25554 | 12.13973 | 27317 ft | 496 kts | 114° |
| 2026-05-05 15:37 | 60.24395 | 12.20048 | 27999 ft | 448 kts | 114° |
| 2026-05-05 15:37 | 60.23261 | 12.25906 | 28233 ft | 446 kts | 115° |
| 2026-05-05 15:37 | 60.22123 | 12.31692 | 28597 ft | 452 kts | 115° |
| 2026-05-05 15:38 | 60.20971 | 12.37549 | 28826 ft | 437 kts | 115° |
| 2026-05-05 15:38 | 60.19895 | 12.43046 | 28852 ft | 403 kts | 115° |
| 2026-05-05 15:38 | 60.18914 | 12.48093 | 28852 ft | 377 kts | 114° |
| 2026-05-05 15:39 | 60.17513 | 12.57934 | 28847 ft | 346 kts | 103° |
| 2026-05-05 15:39 | 60.17163 | 12.62537 | 28845 ft | 325 kts | 99° |
| 2026-05-05 15:39 | 60.16899 | 12.66968 | 28846 ft | 312 kts | 99° |
| 2026-05-05 15:39 | 60.16655 | 12.71163 | 28845 ft | 294 kts | 100° |
| 2026-05-05 15:40 | 60.16406 | 12.75263 | 28861 ft | 295 kts | 100° |
| 2026-05-05 15:40 | 60.16151 | 12.79342 | 28863 ft | 295 kts | 100° |
| 2026-05-05 15:40 | 60.15891 | 12.83429 | 28864 ft | 296 kts | 100° |
| 2026-05-05 15:40 | 60.15631 | 12.87489 | 28863 ft | 295 kts | 100° |
| 2026-05-05 15:41 | 60.15368 | 12.91567 | 28863 ft | 295 kts | 100° |
| 2026-05-05 15:41 | 60.15104 | 12.95647 | 28863 ft | 295 kts | 100° |
| 2026-05-05 15:41 | 60.14838 | 12.99734 | 28862 ft | 295 kts | 100° |
| 2026-05-05 15:41 | 60.14570 | 13.03851 | 28862 ft | 296 kts | 101° |
| 2026-05-05 15:42 | 60.14294 | 13.08029 | 28883 ft | 314 kts | 101° |
| 2026-05-05 15:42 | 60.13985 | 13.12602 | 28883 ft | 342 kts | 101° |
| 2026-05-05 15:42 | 60.13657 | 13.17462 | 28878 ft | 367 kts | 100° |
| 2026-05-05 15:42 | 60.13305 | 13.22680 | 28873 ft | 392 kts | 100° |
| 2026-05-05 15:43 | 60.12925 | 13.28275 | 28870 ft | 417 kts | 100° |
| 2026-05-05 15:43 | 60.12519 | 13.34228 | 28868 ft | 442 kts | 100° |
| 2026-05-05 15:43 | 60.12088 | 13.40515 | 28865 ft | 465 kts | 99° |
| 2026-05-05 15:43 | 60.11632 | 13.47105 | 28865 ft | 489 kts | 99° |
| 2026-05-05 15:44 | 60.11150 | 13.54027 | 28864 ft | 516 kts | 99° |
| 2026-05-05 15:44 | 60.10640 | 13.61292 | 28863 ft | 543 kts | 99° |
| 2026-05-05 15:44 | 60.10100 | 13.68921 | 28860 ft | 569 kts | 100° |
| 2026-05-05 15:44 | 60.09528 | 13.76977 | 28861 ft | 594 kts | 100° |
| 2026-05-05 15:45 | 60.08955 | 13.85005 | 28856 ft | 574 kts | 100° |
| 2026-05-05 15:45 | 60.07812 | 14.00869 | 28862 ft | 575 kts | 100° |
| 2026-05-05 15:46 | 60.06628 | 14.16916 | 28861 ft | 590 kts | 100° |
| 2026-05-05 15:46 | 60.05413 | 14.33176 | 28859 ft | 590 kts | 100° |
| 2026-05-05 15:46 | 60.04809 | 14.41122 | 28852 ft | 570 kts | 100° |
| 2026-05-05 15:47 | 60.04223 | 14.48777 | 28851 ft | 547 kts | 100° |
| 2026-05-05 15:47 | 60.03022 | 14.63659 | 28854 ft | 542 kts | 100° |
| 2026-05-05 15:48 | 60.01854 | 14.78535 | 28834 ft | 546 kts | 101° |
| 2026-05-05 15:48 | 60.01276 | 14.86198 | 28595 ft | 567 kts | 100° |
| 2026-05-05 15:48 | 60.00690 | 14.94081 | 28345 ft | 573 kts | 100° |
| 2026-05-05 15:48 | 60.00079 | 15.01910 | 28099 ft | 570 kts | 101° |
| 2026-05-05 15:49 | 59.99448 | 15.09699 | 27836 ft | 567 kts | 101° |
| 2026-05-05 15:49 | 59.98809 | 15.17446 | 27285 ft | 565 kts | 101° |
| 2026-05-05 15:49 | 59.98170 | 15.25112 | 26546 ft | 561 kts | 101° |
| 2026-05-05 15:49 | 59.97532 | 15.32716 | 25945 ft | 554 kts | 101° |
| 2026-05-05 15:50 | 59.96894 | 15.40279 | 25240 ft | 548 kts | 101° |
| 2026-05-05 15:50 | 59.96265 | 15.47676 | 24558 ft | 539 kts | 101° |
| 2026-05-05 15:50 | 59.95643 | 15.54963 | 23955 ft | 528 kts | 101° |
| 2026-05-05 15:50 | 59.95031 | 15.62071 | 23368 ft | 517 kts | 101° |
| 2026-05-05 15:51 | 59.94423 | 15.69107 | 22785 ft | 507 kts | 101° |
| 2026-05-05 15:51 | 59.93822 | 15.76010 | 22221 ft | 498 kts | 101° |
| 2026-05-05 15:51 | 59.93233 | 15.82728 | 21659 ft | 490 kts | 101° |
| 2026-05-05 15:51 | 59.92648 | 15.89360 | 21100 ft | 482 kts | 101° |
| 2026-05-05 15:52 | 59.92075 | 15.95812 | 20551 ft | 475 kts | 101° |
| 2026-05-05 15:52 | 59.91499 | 16.02264 | 20005 ft | 469 kts | 101° |
| 2026-05-05 15:52 | 59.90926 | 16.08642 | 19462 ft | 465 kts | 101° |
| 2026-05-05 15:52 | 59.90358 | 16.14940 | 18922 ft | 460 kts | 101° |
| 2026-05-05 15:53 | 59.89793 | 16.21141 | 18386 ft | 456 kts | 101° |
| 2026-05-05 15:53 | 59.89214 | 16.27344 | 17849 ft | 451 kts | 101° |
| 2026-05-05 15:53 | 59.88645 | 16.33405 | 17318 ft | 447 kts | 101° |
| 2026-05-05 15:53 | 59.88076 | 16.39484 | 16787 ft | 442 kts | 101° |
| 2026-05-05 15:54 | 59.87522 | 16.45416 | 16265 ft | 438 kts | 101° |
| 2026-05-05 15:54 | 59.86965 | 16.51376 | 15738 ft | 434 kts | 101° |
| 2026-05-05 15:54 | 59.86422 | 16.57184 | 15219 ft | 430 kts | 101° |
| 2026-05-05 15:54 | 59.85875 | 16.63009 | 14697 ft | 426 kts | 101° |
| 2026-05-05 15:55 | 59.85332 | 16.68776 | 14179 ft | 422 kts | 101° |
| 2026-05-05 15:55 | 59.84790 | 16.74507 | 13688 ft | 417 kts | 101° |
| 2026-05-05 15:55 | 59.84253 | 16.80155 | 13171 ft | 413 kts | 101° |
| 2026-05-05 15:55 | 59.83720 | 16.85719 | 12652 ft | 409 kts | 101° |
| 2026-05-05 15:56 | 59.83190 | 16.91223 | 12128 ft | 405 kts | 101° |
| 2026-05-05 15:56 | 59.82659 | 16.96638 | 11622 ft | 397 kts | 103° |
| 2026-05-05 15:56 | 59.81922 | 17.01890 | 11111 ft | 390 kts | 109° |
| 2026-05-05 15:56 | 59.81038 | 17.06886 | 10605 ft | 383 kts | 110° |
| 2026-05-05 15:57 | 59.80128 | 17.11803 | 10106 ft | 377 kts | 110° |
| 2026-05-05 15:57 | 59.79152 | 17.16597 | 9603 ft | 372 kts | 119° |
| 2026-05-05 15:57 | 59.77517 | 17.20424 | 9079 ft | 363 kts | 146° |
| 2026-05-05 15:57 | 59.75247 | 17.22400 | 8571 ft | 352 kts | 171° |
| 2026-05-05 15:58 | 59.72943 | 17.22986 | 7942 ft | 326 kts | 174° |
| 2026-05-05 15:58 | 59.70795 | 17.23913 | 7280 ft | 303 kts | 166° |
| 2026-05-05 15:58 | 59.68868 | 17.25089 | 6919 ft | 284 kts | 163° |
| 2026-05-05 15:58 | 59.66943 | 17.26397 | 6831 ft | 295 kts | 162° |
| 2026-05-05 15:59 | 59.65000 | 17.27767 | 6824 ft | 296 kts | 162° |
| 2026-05-05 15:59 | 59.63095 | 17.29129 | 6692 ft | 291 kts | 162° |
| 2026-05-05 15:59 | 59.61225 | 17.30473 | 5986 ft | 287 kts | 161° |
| 2026-05-05 15:59 | 59.59337 | 17.31833 | 5374 ft | 289 kts | 161° |
| 2026-05-05 16:00 | 59.57460 | 17.33178 | 5059 ft | 289 kts | 161° |
| 2026-05-05 16:00 | 59.55566 | 17.34570 | 5001 ft | 289 kts | 157° |
| 2026-05-05 16:00 | 59.53929 | 17.36851 | 5003 ft | 292 kts | 129° |
| 2026-05-05 16:00 | 59.53097 | 17.40396 | 5001 ft | 290 kts | 99° |
| 2026-05-05 16:01 | 59.52867 | 17.44354 | 5012 ft | 286 kts | 98° |
| 2026-05-05 16:01 | 59.52197 | 17.47992 | 5010 ft | 282 kts | 121° |
| 2026-05-05 16:01 | 59.51102 | 17.51193 | 5018 ft | 283 kts | 125° |
| 2026-05-05 16:01 | 59.49971 | 17.54275 | 5011 ft | 271 kts | 127° |
| 2026-05-05 16:02 | 59.48908 | 17.57200 | 5010 ft | 260 kts | 126° |
| 2026-05-05 16:02 | 59.47834 | 17.60108 | 5014 ft | 266 kts | 126° |
| 2026-05-05 16:02 | 59.46757 | 17.63066 | 5012 ft | 266 kts | 126° |
| 2026-05-05 16:02 | 59.45674 | 17.66030 | 5012 ft | 266 kts | 127° |
| 2026-05-05 16:03 | 59.44609 | 17.68987 | 5009 ft | 261 kts | 127° |
| 2026-05-05 16:03 | 59.43573 | 17.71904 | 5013 ft | 259 kts | 127° |
| 2026-05-05 16:03 | 59.42539 | 17.74848 | 5009 ft | 259 kts | 127° |
| 2026-05-05 16:03 | 59.41273 | 17.77312 | 5002 ft | 257 kts | 153° |
| 2026-05-05 16:04 | 59.39621 | 17.78295 | 5009 ft | 249 kts | 183° |
| 2026-05-05 16:04 | 59.37982 | 17.77551 | 5008 ft | 243 kts | 213° |
| 2026-05-05 16:04 | 59.36791 | 17.75286 | 5007 ft | 234 kts | 244° |
| 2026-05-05 16:04 | 59.36373 | 17.72281 | 5010 ft | 231 kts | 267° |
| 2026-05-05 16:05 | 59.36229 | 17.69095 | 5013 ft | 231 kts | 268° |
| 2026-05-05 16:05 | 59.36472 | 17.66031 | 5008 ft | 230 kts | 293° |
| 2026-05-05 16:05 | 59.37203 | 17.63217 | 5021 ft | 230 kts | 297° |
| 2026-05-05 16:05 | 59.37947 | 17.60427 | 5014 ft | 230 kts | 297° |
| 2026-05-05 16:06 | 59.38691 | 17.57675 | 5013 ft | 231 kts | 297° |
| 2026-05-05 16:06 | 59.39444 | 17.54866 | 5014 ft | 230 kts | 297° |
| 2026-05-05 16:06 | 59.40157 | 17.52081 | 5013 ft | 230 kts | 297° |
| 2026-05-05 16:06 | 59.40952 | 17.49348 | 4998 ft | 231 kts | 310° |
| 2026-05-05 16:07 | 59.42271 | 17.47599 | 5006 ft | 237 kts | 341° |
| 2026-05-05 16:07 | 59.43916 | 17.47480 | 5003 ft | 242 kts | 12° |
| 2026-05-05 16:07 | 59.45394 | 17.49103 | 5007 ft | 252 kts | 43° |
| 2026-05-05 16:07 | 59.46298 | 17.52078 | 5003 ft | 259 kts | 74° |
| 2026-05-05 16:08 | 59.46489 | 17.55587 | 5023 ft | 260 kts | 87° |
| 2026-05-05 16:08 | 59.46477 | 17.59183 | 5018 ft | 261 kts | 95° |
| 2026-05-05 16:08 | 59.46294 | 17.62711 | 5016 ft | 259 kts | 97° |
| 2026-05-05 16:08 | 59.46098 | 17.66226 | 5013 ft | 259 kts | 97° |
| 2026-05-05 16:09 | 59.45898 | 17.69758 | 4938 ft | 255 kts | 97° |
| 2026-05-05 16:09 | 59.45710 | 17.73091 | 4608 ft | 238 kts | 97° |
| 2026-05-05 16:09 | 59.45533 | 17.76276 | 3979 ft | 235 kts | 97° |
| 2026-05-05 16:09 | 59.45355 | 17.79444 | 3280 ft | 235 kts | 97° |
| 2026-05-05 16:10 | 59.45278 | 17.82604 | 2741 ft | 226 kts | 81° |
| 2026-05-05 16:10 | 59.45865 | 17.85246 | 2515 ft | 201 kts | 44° |
| 2026-05-05 16:10 | 59.46936 | 17.86615 | 2497 ft | 176 kts | 8° |
| 2026-05-05 16:10 | 59.48120 | 17.86575 | 2521 ft | 172 kts | 351° |
| 2026-05-05 16:11 | 59.49323 | 17.86502 | 2511 ft | 173 kts | 358° |
| 2026-05-05 16:11 | 59.52930 | 17.87422 | 2299 ft | 175 kts | 6° |
| 2026-05-05 16:12 | 59.54121 | 17.87843 | 2068 ft | 173 kts | 6° |
| 2026-05-05 16:12 | 59.56481 | 17.88695 | 1611 ft | 172 kts | 6° |
| 2026-05-05 16:13 | 59.59978 | 17.89961 | 934 ft | 169 kts | 6° |
| 2026-05-05 16:13 | 59.61124 | 17.90376 | 712 ft | 170 kts | 6° |
| 2026-05-05 16:13 | 59.62281 | 17.90795 | 490 ft | 168 kts | 6° |
| 2026-05-05 16:14 | 59.64569 | 17.91622 | 160 ft | 164 kts | 9° |
| 2026-05-05 16:14 | 59.66440 | 17.92375 | 1537 ft | 147 kts | 3° |
| 2026-05-05 16:15 | 59.68269 | 17.92559 | 3352 ft | 120 kts | 325° |
| 2026-05-05 16:15 | 59.68813 | 17.89078 | 3987 ft | 176 kts | 276° |
| 2026-05-05 16:16 | 59.69062 | 17.83880 | 3990 ft | 209 kts | 271° |
| 2026-05-05 16:16 | 59.68057 | 17.78868 | 3977 ft | 174 kts | 246° |
| 2026-05-05 16:17 | 59.67115 | 17.75105 | 3964 ft | 132 kts | 246° |
| 2026-05-05 16:17 | 59.66704 | 17.73511 | 3982 ft | 130 kts | 246° |
| 2026-05-05 16:18 | 59.65868 | 17.70306 | 4000 ft | 136 kts | 246° |
| 2026-05-05 16:18 | 59.65426 | 17.68620 | 3995 ft | 137 kts | 246° |
| 2026-05-05 16:18 | 59.64520 | 17.65296 | 3994 ft | 140 kts | 237° |
| 2026-05-05 16:19 | 59.63655 | 17.64390 | 3986 ft | 151 kts | 186° |
| 2026-05-05 16:19 | 59.62610 | 17.64650 | 4005 ft | 143 kts | 176° |
| 2026-05-05 16:19 | 59.60691 | 17.65184 | 4004 ft | 138 kts | 176° |
| 2026-05-05 16:20 | 59.58799 | 17.65733 | 4006 ft | 137 kts | 176° |
| 2026-05-05 16:20 | 59.56931 | 17.66297 | 4008 ft | 136 kts | 176° |
| 2026-05-05 16:21 | 59.55059 | 17.66876 | 4010 ft | 135 kts | 176° |
| 2026-05-05 16:22 | 59.52289 | 17.67748 | 4012 ft | 134 kts | 176° |
| 2026-05-05 16:22 | 59.50447 | 17.68333 | 4014 ft | 134 kts | 176° |
| 2026-05-05 16:23 | 59.48663 | 17.69319 | 3991 ft | 141 kts | 137° |
| 2026-05-05 16:23 | 59.48318 | 17.71120 | 4022 ft | 146 kts | 92° |
| 2026-05-05 16:23 | 59.48149 | 17.75094 | 4014 ft | 145 kts | 96° |
| 2026-05-05 16:24 | 59.48039 | 17.77080 | 4014 ft | 145 kts | 96° |
| 2026-05-05 16:24 | 59.47929 | 17.79059 | 4014 ft | 145 kts | 96° |
| 2026-05-05 16:24 | 59.48325 | 17.82630 | 3964 ft | 140 kts | 32° |
| 2026-05-05 16:25 | 59.49160 | 17.83684 | 3571 ft | 148 kts | 28° |
| 2026-05-05 16:25 | 59.50966 | 17.86029 | 2584 ft | 162 kts | 24° |
| 2026-05-05 16:25 | 59.51994 | 17.86797 | 2251 ft | 149 kts | 11° |
| 2026-05-05 16:26 | 59.53798 | 17.87691 | 2121 ft | 129 kts | 6° |
| 2026-05-05 16:26 | 59.55544 | 17.88359 | 1786 ft | 127 kts | 5° |
| 2026-05-05 16:27 | 59.56409 | 17.88677 | 1620 ft | 127 kts | 6° |
| 2026-05-05 16:27 | 59.57274 | 17.89075 | 1454 ft | 127 kts | 9° |
| 2026-05-05 16:27 | 59.58125 | 17.89558 | 1293 ft | 126 kts | 6° |
| 2026-05-05 16:27 | 59.58986 | 17.89901 | 1085 ft | 124 kts | 359° |
| 2026-05-05 16:28 | 59.59853 | 17.90009 | 866 ft | 125 kts | 358° |
| 2026-05-05 16:28 | 59.60718 | 17.90184 | 670 ft | 124 kts | 1° |
| 2026-05-05 16:28 | 59.61568 | 17.90492 | 564 ft | 122 kts | 7° |
| 2026-05-05 16:28 | 59.62434 | 17.90895 | 391 ft | 127 kts | 3° |
| 2026-05-05 16:29 | 59.63280 | 17.91174 | 243 ft | 123 kts | 5° |
| 2026-05-05 16:29 | 59.64088 | 17.91457 | 151 ft | 97 kts | 6° |
| 2026-05-05 16:29 | 59.64344 | 17.91537 | 151 ft | 3 kts | 18° |
| 2026-05-05 16:29 | 59.64378 | 17.91559 | 151 ft | 17 kts | 16° |
| 2026-05-05 16:30 | 59.64420 | 17.91723 | 151 ft | 13 kts | 101° |
| 2026-05-05 16:30 | 59.64411 | 17.91812 | 151 ft | 0 kts | 101° |
| 2026-05-05 16:30 | 59.64411 | 17.91813 | 151 ft | 0 kts | 102° |
| 2026-05-05 16:30 | 59.64406 | 17.91885 | 151 ft | 0 kts | 93° |
| 2026-05-05 16:31 | 59.64404 | 17.91927 | 151 ft | 5 kts | 95° |
| 2026-05-05 16:31 | 59.64366 | 17.91994 | 151 ft | 32 kts | 157° |
| 2026-05-05 16:32 | 59.64238 | 17.92330 | 151 ft | 26 kts | 116° |
| 2026-05-05 16:32 | 59.64155 | 17.92668 | 151 ft | 35 kts | 116° |
| 2026-05-05 16:32 | 59.64026 | 17.93140 | 151 ft | 32 kts | 117° |
| 2026-05-05 16:32 | 59.63913 | 17.93221 | 151 ft | 17 kts | 213° |
| 2026-05-05 16:33 | 59.63850 | 17.93146 | 151 ft | 0 kts | 208° |